Asterion — FICK — position and weather

sailwx.info

Track history (hours):
 
Tides and Currents Weather Stations Pressure Air Temp Water Temp Dewpoint Dewpoint Depression Visibility Wind Speed Wind Dir Waves Ship Positions

Asterion

Last reported at 2014-Sep-30 18:33 UTC. Time now 2014-Oct-01 16:30 UTC.
Position N 41°19' E 002°10'.

Length 184 m; draft 10.9 m.

Type: Ship (hazmat cat B). MMSI: 226000000.

Date/timePositionNaut miles runAvg speedWind from/ knotsBaromVisibWave heightAir tempDewpointWater temp
2014-Sep-30 18:33N 41°19' E 002°10'9 8.9
2014-Sep-30 17:33N 41°13' E 002°19'1212.5
2014-Sep-30 16:34N 41°06' E 002°32'1312.3
2014-Sep-30 15:32N 40°59' E 002°46'1212.3
2014-Sep-30 14:33N 40°52' E 002°60'1212.1
2014-Sep-30 13:33N 40°45' E 003°13'1212.1
2014-Sep-30 12:33N 40°38' E 003°26'1212.0
2014-Sep-30 11:32N 40°32' E 003°39'22812.6
2014-Sep-29 17:24N 37°35' E 006°45'70869.6
2014-Sep-29 07:13N 48°56' E 002°14'91348.4
2014-Sep-28 12:21N 36°28' E 014°07'1312.8
2014-Sep-28 11:20N 36°23' E 014°23'44211.7
2014-Sep-26 21:27N 36°49' E 023°32'4912.7
2014-Sep-26 17:33N 37°37' E 023°43'1313.1
2014-Sep-26 16:33N 37°49' E 023°36'8 8.4
2014-Sep-26 15:34N 37°57' E 023°33'4 0.1
2014-Sep-25 06:26N 38°01' E 023°36'3 3.1
2014-Sep-25 05:33N 38°01' E 023°32'0 0.1
2014-Sep-25 04:33N 38°01' E 023°32'0 0.0
2014-Sep-25 03:33N 38°01' E 023°32'0 0.0
2014-Sep-25 02:33N 38°01' E 023°32'0 0.0
2014-Sep-25 01:30N 38°01' E 023°32'0 0.0
2014-Sep-25 00:30N 38°01' E 023°32'0 0.0
2014-Sep-24 23:33N 38°01' E 023°32'0 0.0
2014-Sep-24 22:33N 38°01' E 023°32'0 0.1
2014-Sep-24 21:33N 38°01' E 023°32'0 0.0
2014-Sep-24 20:33N 38°01' E 023°32'0 0.0
2014-Sep-24 19:33N 38°01' E 023°32'0 0.0
2014-Sep-24 18:30N 38°01' E 023°32'0 0.0
2014-Sep-24 17:33N 38°01' E 023°32'0 0.0
2014-Sep-24 16:33N 38°01' E 023°32'0 0.0
2014-Sep-24 15:33N 38°01' E 023°32'0 0.0
2014-Sep-24 14:33N 38°01' E 023°32'0 0.0
2014-Sep-24 13:33N 38°01' E 023°32'5 5.0
2014-Sep-24 12:33N 37°57' E 023°36'5 5.3
2014-Sep-24 11:33N 37°52' E 023°38'1312.5
2014-Sep-24 10:33N 37°41' E 023°45'1312.3
2014-Sep-24 09:31N 37°28' E 023°45'13 0.8
2014-Sep-23 17:33N 37°15' E 023°43'9 6.7
2014-Sep-23 16:13N 37°22' E 023°51'1 1.3
2014-Sep-23 15:22N 37°22' E 023°49'1 1.4
2014-Sep-23 14:21N 37°21' E 023°48'2 1.7
2014-Sep-23 13:09N 37°19' E 023°46'1 2.0
2014-Sep-23 12:33N 37°18' E 023°46'3 2.0
2014-Sep-23 11:03N 37°15' E 023°44'1 1.2
2014-Sep-23 10:33N 37°15' E 023°44'1110.4
2014-Sep-23 09:33N 37°05' E 023°39'1313.0
2014-Sep-23 08:33N 36°53' E 023°34'1313.1
2014-Sep-23 07:33N 36°40' E 023°29'1313.2
2014-Sep-23 06:33N 36°28' E 023°24'1313.4
2014-Sep-23 05:33N 36°15' E 023°19'1312.8
2014-Sep-23 04:33N 36°04' E 023°10'120557.1
2014-Sep-22 07:27N 48°56' E 002°14'982140.8
2014-Sep-22 00:28N 35°55' E 015°40'1112.6
2014-Sep-21 23:34N 35°54' E 015°26'1312.6
2014-Sep-21 22:34N 35°52' E 015°10'1312.9
2014-Sep-21 21:33N 35°52' E 014°55'8 8.0
2014-Sep-21 20:33N 35°54' E 014°45'0 0.0
2014-Sep-21 19:33N 35°54' E 014°45'0 0.0
2014-Sep-21 18:33N 35°54' E 014°45'1 1.1
2014-Sep-21 17:33N 35°53' E 014°45'1010.3
2014-Sep-21 16:33N 35°49' E 014°33'1 0.4
2014-Sep-21 14:33N 35°50' E 014°33'0 0.0
2014-Sep-21 12:06N 35°50' E 014°33'0 0.0
2014-Sep-21 11:30N 35°50' E 014°33'0 0.0
2014-Sep-21 10:33N 35°50' E 014°33'0 0.0
2014-Sep-21 09:33N 35°50' E 014°33'0 0.0
2014-Sep-21 08:30N 35°50' E 014°33'0 0.0
2014-Sep-21 07:33N 35°50' E 014°33'0 0.0
2014-Sep-21 06:30N 35°50' E 014°33'0 0.0
2014-Sep-21 05:30N 35°50' E 014°33'0 0.0
2014-Sep-21 04:30N 35°50' E 014°33'0 0.0
2014-Sep-21 03:33N 35°50' E 014°33'0 0.0
2014-Sep-21 02:15N 35°50' E 014°33'0 0.0
2014-Sep-21 01:33N 35°50' E 014°33'0 0.0
2014-Sep-21 00:21N 35°50' E 014°33'0 0.0
2014-Sep-20 23:33N 35°50' E 014°33'0 0.0
2014-Sep-20 20:27N 35°50' E 014°33'  
Track history (hours):
 
Tides and Currents Weather Stations Pressure Air Temp Water Temp Dewpoint Dewpoint Depression Visibility Wind Speed Wind Dir Waves Ship Positions

Asterion

Last reported at 2014-Sep-30 18:33 UTC. Time now 2014-Oct-01 16:30 UTC.
Position N 41°19' E 002°10'.

Length 184 m; draft 10.9 m.

Type: Ship (hazmat cat B). MMSI: 226000000.

Date/timePositionNaut miles runAvg speedWind from/ knotsBaromVisibWave heightAir tempDewpointWater temp
2014-Sep-30 18:33N 41°19' E 002°10'9 8.9
2014-Sep-30 17:33N 41°13' E 002°19'1212.5
2014-Sep-30 16:34N 41°06' E 002°32'1312.3
2014-Sep-30 15:32N 40°59' E 002°46'1212.3
2014-Sep-30 14:33N 40°52' E 002°60'1212.1
2014-Sep-30 13:33N 40°45' E 003°13'1212.1
2014-Sep-30 12:33N 40°38' E 003°26'1212.0
2014-Sep-30 11:32N 40°32' E 003°39'22812.6
2014-Sep-29 17:24N 37°35' E 006°45'70869.6
2014-Sep-29 07:13N 48°56' E 002°14'91348.4
2014-Sep-28 12:21N 36°28' E 014°07'1312.8
2014-Sep-28 11:20N 36°23' E 014°23'44211.7
2014-Sep-26 21:27N 36°49' E 023°32'4912.7
2014-Sep-26 17:33N 37°37' E 023°43'1313.1
2014-Sep-26 16:33N 37°49' E 023°36'8 8.4
2014-Sep-26 15:34N 37°57' E 023°33'4 0.1
2014-Sep-25 06:26N 38°01' E 023°36'3 3.1
2014-Sep-25 05:33N 38°01' E 023°32'0 0.1
2014-Sep-25 04:33N 38°01' E 023°32'0 0.0
2014-Sep-25 03:33N 38°01' E 023°32'0 0.0
2014-Sep-25 02:33N 38°01' E 023°32'0 0.0
2014-Sep-25 01:30N 38°01' E 023°32'0 0.0
2014-Sep-25 00:30N 38°01' E 023°32'0 0.0
2014-Sep-24 23:33N 38°01' E 023°32'0 0.0
2014-Sep-24 22:33N 38°01' E 023°32'0 0.1
2014-Sep-24 21:33N 38°01' E 023°32'0 0.0
2014-Sep-24 20:33N 38°01' E 023°32'0 0.0
2014-Sep-24 19:33N 38°01' E 023°32'0 0.0
2014-Sep-24 18:30N 38°01' E 023°32'0 0.0
2014-Sep-24 17:33N 38°01' E 023°32'0 0.0
2014-Sep-24 16:33N 38°01' E 023°32'0 0.0
2014-Sep-24 15:33N 38°01' E 023°32'0 0.0
2014-Sep-24 14:33N 38°01' E 023°32'0 0.0
2014-Sep-24 13:33N 38°01' E 023°32'5 5.0
2014-Sep-24 12:33N 37°57' E 023°36'5 5.3
2014-Sep-24 11:33N 37°52' E 023°38'1312.5
2014-Sep-24 10:33N 37°41' E 023°45'1312.3
2014-Sep-24 09:31N 37°28' E 023°45'13 0.8
2014-Sep-23 17:33N 37°15' E 023°43'9 6.7
2014-Sep-23 16:13N 37°22' E 023°51'1 1.3
2014-Sep-23 15:22N 37°22' E 023°49'1 1.4
2014-Sep-23 14:21N 37°21' E 023°48'2 1.7
2014-Sep-23 13:09N 37°19' E 023°46'1 2.0
2014-Sep-23 12:33N 37°18' E 023°46'3 2.0
2014-Sep-23 11:03N 37°15' E 023°44'1 1.2
2014-Sep-23 10:33N 37°15' E 023°44'1110.4
2014-Sep-23 09:33N 37°05' E 023°39'1313.0
2014-Sep-23 08:33N 36°53' E 023°34'1313.1
2014-Sep-23 07:33N 36°40' E 023°29'1313.2
2014-Sep-23 06:33N 36°28' E 023°24'1313.4
2014-Sep-23 05:33N 36°15' E 023°19'1312.8
2014-Sep-23 04:33N 36°04' E 023°10'120557.1
2014-Sep-22 07:27N 48°56' E 002°14'982140.8
2014-Sep-22 00:28N 35°55' E 015°40'1112.6
2014-Sep-21 23:34N 35°54' E 015°26'1312.6
2014-Sep-21 22:34N 35°52' E 015°10'1312.9
2014-Sep-21 21:33N 35°52' E 014°55'8 8.0
2014-Sep-21 20:33N 35°54' E 014°45'0 0.0
2014-Sep-21 19:33N 35°54' E 014°45'0 0.0
2014-Sep-21 18:33N 35°54' E 014°45'1 1.1
2014-Sep-21 17:33N 35°53' E 014°45'1010.3
2014-Sep-21 16:33N 35°49' E 014°33'1 0.4
2014-Sep-21 14:33N 35°50' E 014°33'0 0.0
2014-Sep-21 12:06N 35°50' E 014°33'0 0.0
2014-Sep-21 11:30N 35°50' E 014°33'0 0.0
2014-Sep-21 10:33N 35°50' E 014°33'0 0.0
2014-Sep-21 09:33N 35°50' E 014°33'0 0.0
2014-Sep-21 08:30N 35°50' E 014°33'0 0.0
2014-Sep-21 07:33N 35°50' E 014°33'0 0.0
2014-Sep-21 06:30N 35°50' E 014°33'0 0.0
2014-Sep-21 05:30N 35°50' E 014°33'0 0.0
2014-Sep-21 04:30N 35°50' E 014°33'0 0.0
2014-Sep-21 03:33N 35°50' E 014°33'0 0.0
2014-Sep-21 02:15N 35°50' E 014°33'0 0.0
2014-Sep-21 01:33N 35°50' E 014°33'0 0.0
2014-Sep-21 00:21N 35°50' E 014°33'0 0.0
2014-Sep-20 23:33N 35°50' E 014°33'0 0.0
2014-Sep-20 20:27N 35°50' E 014°33'  

Dump ship's entire track history